createdAt,value
2023-03-16T00:01:08.622Z,100.00
2023-03-16T00:03:39.700Z,100.00
2023-03-16T00:06:10.729Z,100.00
2023-03-16T00:08:43.615Z,100.00
2023-03-16T00:11:14.061Z,100.00
2023-03-16T00:13:44.563Z,100.00
2023-03-16T00:16:16.855Z,100.00
2023-03-16T00:18:47.681Z,100.00
2023-03-16T00:21:18.181Z,100.00
2023-03-16T00:23:48.722Z,100.00
2023-03-16T00:26:19.413Z,100.00
2023-03-16T00:28:49.928Z,100.00
2023-03-16T00:31:24.966Z,100.00
2023-03-16T00:33:55.838Z,100.00
2023-03-16T00:36:26.460Z,100.00
2023-03-16T00:38:57.299Z,100.00
2023-03-16T00:41:28.147Z,100.00
2023-03-16T00:43:58.623Z,100.00
2023-03-16T00:46:29.304Z,100.00
2023-03-16T00:48:59.944Z,100.00
2023-03-16T00:51:33.687Z,100.00
2023-03-16T00:54:05.587Z,100.00
2023-03-16T00:56:36.261Z,100.00
2023-03-16T00:59:06.895Z,100.00
2023-03-16T01:01:37.497Z,100.00
2023-03-16T01:04:09.388Z,100.00
2023-03-16T01:06:40.097Z,100.00
2023-03-16T01:09:10.839Z,100.00
2023-03-16T01:11:43.182Z,100.00
2023-03-16T01:14:13.957Z,100.00
2023-03-16T01:16:46.069Z,100.00
2023-03-16T01:19:17.149Z,100.00
2023-03-16T01:21:47.554Z,100.00
2023-03-16T01:24:19.614Z,100.00
2023-03-16T01:26:50.265Z,100.00
2023-03-16T01:29:20.820Z,100.00
2023-03-16T01:31:51.853Z,100.00
2023-03-16T01:34:21.529Z,100.00
2023-03-16T01:36:52.797Z,100.00
2023-03-16T01:39:30.774Z,100.00
2023-03-16T01:42:01.445Z,100.00
2023-03-16T01:44:45.699Z,100.00
2023-03-16T01:47:16.365Z,100.00
2023-03-16T01:49:48.315Z,100.00
2023-03-16T01:52:23.389Z,100.00
2023-03-16T01:54:58.220Z,100.00
2023-03-16T01:57:36.871Z,100.00
2023-03-16T02:00:14.720Z,100.00
2023-03-16T02:02:48.594Z,100.00
2023-03-16T02:05:31.970Z,100.00
2023-03-16T02:08:05.192Z,100.00
2023-03-16T02:10:37.024Z,100.00
2023-03-16T02:13:07.960Z,100.00
2023-03-16T02:15:39.027Z,100.00
2023-03-16T02:18:10.966Z,100.00
2023-03-16T02:20:48.835Z,100.00
2023-03-16T02:23:22.170Z,100.00
2023-03-16T02:25:58.873Z,100.00
2023-03-16T02:28:37.005Z,100.00
2023-03-16T02:31:10.808Z,100.00
2023-03-16T02:33:43.621Z,100.00
2023-03-16T02:36:16.243Z,100.00
2023-03-16T02:38:47.420Z,100.00
2023-03-16T02:41:22.248Z,100.00
2023-03-16T02:44:07.109Z,100.00
2023-03-16T02:46:43.509Z,100.00
2023-03-16T02:49:19.953Z,100.00
2023-03-16T02:51:50.885Z,100.00
2023-03-16T02:54:25.637Z,100.00
2023-03-16T02:56:56.398Z,100.00
2023-03-16T02:59:27.399Z,100.00
2023-03-16T03:01:58.300Z,100.00
2023-03-16T03:04:29.027Z,100.00
2023-03-16T03:07:04.608Z,100.00
2023-03-16T03:09:37.147Z,100.00
2023-03-16T03:12:08.889Z,100.00
2023-03-16T03:14:40.323Z,100.00
2023-03-16T03:17:10.467Z,100.00
2023-03-16T03:19:41.329Z,100.00
2023-03-16T03:22:12.666Z,100.00
2023-03-16T03:24:41.709Z,100.00
2023-03-16T03:27:12.217Z,100.00
2023-03-16T03:29:44.648Z,100.00
2023-03-16T03:32:15.589Z,100.00
2023-03-16T03:34:46.077Z,100.00
2023-03-16T03:37:17.049Z,100.00
2023-03-16T03:39:48.442Z,100.00
2023-03-16T03:42:19.521Z,100.00
2023-03-16T03:44:50.080Z,100.00
2023-03-16T03:47:21.652Z,100.00
2023-03-16T03:49:52.206Z,100.00
2023-03-16T03:52:23.984Z,100.00
2023-03-16T03:54:54.501Z,100.00
2023-03-16T03:57:25.145Z,100.00
2023-03-16T03:59:55.977Z,100.00
2023-03-16T04:02:45.558Z,100.00
2023-03-16T04:05:27.514Z,100.00
2023-03-16T04:07:59.313Z,100.00
2023-03-16T04:10:31.652Z,100.00
2023-03-16T04:13:02.888Z,100.00
2023-03-16T04:15:38.376Z,100.00
2023-03-16T04:18:19.382Z,100.00
2023-03-16T04:20:49.960Z,100.00
2023-03-16T04:23:22.787Z,100.00
2023-03-16T04:25:52.043Z,100.00
2023-03-16T04:28:26.360Z,100.00
2023-03-16T04:30:56.986Z,100.00
2023-03-16T04:33:33.183Z,100.00
2023-03-16T04:36:03.955Z,100.00
2023-03-16T04:38:36.172Z,100.00
2023-03-16T04:41:05.701Z,100.00
2023-03-16T04:43:43.309Z,100.00
2023-03-16T04:46:21.457Z,100.00
2023-03-16T04:48:52.235Z,100.00
2023-03-16T04:51:22.764Z,100.00
2023-03-16T04:54:02.400Z,100.00
2023-03-16T04:56:37.422Z,100.00
2023-03-16T04:59:12.056Z,100.00
2023-03-16T05:01:50.148Z,100.00
2023-03-16T05:04:22.059Z,100.00
2023-03-16T05:06:54.514Z,100.00
2023-03-16T05:09:28.358Z,100.00
2023-03-16T05:11:59.613Z,100.00
2023-03-16T05:14:35.975Z,100.00
2023-03-16T05:17:32.932Z,100.00
2023-03-16T05:20:08.011Z,100.00
2023-03-16T05:22:38.934Z,100.00
2023-03-16T05:25:29.836Z,100.00
2023-03-16T05:28:02.561Z,100.00
2023-03-16T05:30:53.488Z,100.00
2023-03-16T05:33:27.878Z,100.00
2023-03-16T05:36:04.910Z,100.00
2023-03-16T05:38:36.851Z,100.00
2023-03-16T05:41:08.770Z,100.00
2023-03-16T05:43:51.622Z,100.00
2023-03-16T05:46:25.376Z,100.00
2023-03-16T05:48:56.270Z,100.00
2023-03-16T05:51:27.402Z,100.00
2023-03-16T05:53:58.439Z,100.00
2023-03-16T05:56:45.802Z,100.00
2023-03-16T05:59:17.895Z,100.00
2023-03-16T06:01:51.968Z,100.00
2023-03-16T06:04:23.991Z,100.00
2023-03-16T06:06:54.630Z,100.00
2023-03-16T06:09:28.060Z,100.00
2023-03-16T06:11:58.655Z,100.00
2023-03-16T06:14:30.301Z,100.00
2023-03-16T06:17:01.657Z,100.00
2023-03-16T06:19:32.829Z,100.00
2023-03-16T06:22:04.576Z,100.00
2023-03-16T06:24:33.983Z,100.00
2023-03-16T06:27:04.819Z,100.00
2023-03-16T06:29:40.169Z,100.00
2023-03-16T06:32:11.320Z,100.00
2023-03-16T06:34:43.153Z,100.00
2023-03-16T06:37:14.266Z,100.00
2023-03-16T06:39:47.678Z,100.00
2023-03-16T06:42:18.292Z,100.00
2023-03-16T06:44:48.931Z,100.00
2023-03-16T06:47:19.877Z,100.00
2023-03-16T06:49:51.838Z,100.00
2023-03-16T06:52:30.117Z,100.00
2023-03-16T06:55:03.455Z,99.73
2023-03-16T06:57:34.482Z,99.15
2023-03-16T07:00:07.306Z,97.73
2023-03-16T07:02:41.155Z,97.90
2023-03-16T07:05:14.129Z,97.93
2023-03-16T07:07:45.542Z,97.19
2023-03-16T07:10:18.343Z,97.01
2023-03-16T07:12:50.392Z,95.65
2023-03-16T07:15:21.916Z,94.90
2023-03-16T07:17:53.694Z,94.61
2023-03-16T07:20:27.046Z,93.24
2023-03-16T07:22:57.892Z,92.22
2023-03-16T07:25:28.869Z,91.56
2023-03-16T07:27:59.420Z,91.12
2023-03-16T07:30:33.341Z,90.73
2023-03-16T07:33:05.350Z,90.75
2023-03-16T07:35:36.642Z,88.96
2023-03-16T07:38:07.371Z,88.10
2023-03-16T07:40:42.146Z,88.38
2023-03-16T07:43:17.896Z,88.30
2023-03-16T07:45:54.557Z,88.58
2023-03-16T07:48:26.035Z,88.60
2023-03-16T07:51:03.405Z,88.54
2023-03-16T07:53:34.350Z,87.44
2023-03-16T07:56:17.840Z,86.47
2023-03-16T07:58:50.240Z,87.40
2023-03-16T08:01:22.564Z,86.42
2023-03-16T08:03:53.579Z,86.93
2023-03-16T08:06:25.531Z,86.34
2023-03-16T08:08:56.254Z,85.55
2023-03-16T08:11:32.460Z,85.61
2023-03-16T08:14:05.972Z,84.81
2023-03-16T08:16:56.841Z,84.12
2023-03-16T08:19:28.618Z,84.42
2023-03-16T08:22:02.051Z,83.48
2023-03-16T08:24:38.561Z,83.36
2023-03-16T08:27:11.497Z,82.34
2023-03-16T08:29:43.519Z,82.71
2023-03-16T08:32:17.148Z,82.54
2023-03-16T08:34:48.325Z,81.77
2023-03-16T08:37:19.031Z,81.14
2023-03-16T08:39:51.523Z,79.47
2023-03-16T08:42:22.353Z,79.93
2023-03-16T08:45:00.912Z,79.49
2023-03-16T08:47:32.789Z,80.00
2023-03-16T08:50:06.132Z,76.15
2023-03-16T08:52:37.586Z,75.73
2023-03-16T08:55:10.990Z,72.74
2023-03-16T08:57:45.161Z,72.83
2023-03-16T09:00:17.996Z,71.46
2023-03-16T09:02:48.695Z,67.81
2023-03-16T09:05:19.410Z,66.61
2023-03-16T09:07:50.397Z,66.86
2023-03-16T09:10:23.133Z,66.33
2023-03-16T09:12:54.063Z,68.33
2023-03-16T09:15:24.865Z,67.25
2023-03-16T09:17:57.476Z,66.47
2023-03-16T09:20:30.053Z,65.76
2023-03-16T09:23:01.378Z,63.42
2023-03-16T09:25:32.632Z,62.30
2023-03-16T09:28:01.959Z,60.84
2023-03-16T09:30:32.993Z,61.82
2023-03-16T09:33:04.290Z,61.62
2023-03-16T09:35:35.024Z,60.67
2023-03-16T09:38:06.477Z,58.63
2023-03-16T09:40:39.577Z,57.97
2023-03-16T09:43:24.987Z,56.18
2023-03-16T09:46:05.527Z,56.73
2023-03-16T09:48:38.754Z,55.69
2023-03-16T09:51:18.659Z,58.23
2023-03-16T09:53:50.740Z,57.14
2023-03-16T09:56:29.192Z,59.08
2023-03-16T09:59:01.114Z,59.86
2023-03-16T10:01:42.085Z,58.69
2023-03-16T10:04:26.618Z,57.45
2023-03-16T10:07:06.641Z,58.58
2023-03-16T10:09:44.118Z,58.52
2023-03-16T10:12:17.358Z,59.20
2023-03-16T10:14:55.735Z,59.58
2023-03-16T10:17:31.827Z,58.92
2023-03-16T10:20:09.169Z,59.18
2023-03-16T10:22:52.811Z,58.07
2023-03-16T10:25:29.104Z,58.83
2023-03-16T10:27:59.935Z,59.88
2023-03-16T10:33:32.246Z,60.35
2023-03-16T10:36:11.644Z,58.54
2023-03-16T10:38:47.040Z,56.87
2023-03-16T10:41:28.764Z,56.77
2023-03-16T10:44:06.279Z,56.19
2023-03-16T10:46:43.162Z,56.38
2023-03-16T10:49:27.201Z,55.82
2023-03-16T10:52:01.401Z,57.44
2023-03-16T10:54:35.541Z,55.33
2023-03-16T10:57:22.684Z,54.99
2023-03-16T10:59:54.331Z,55.19
2023-03-16T11:02:31.818Z,54.97
2023-03-16T11:05:12.898Z,55.83
2023-03-16T11:07:50.977Z,56.56
2023-03-16T11:10:36.110Z,56.89
2023-03-16T11:13:15.992Z,54.20
2023-03-16T11:15:53.104Z,54.66
2023-03-16T11:18:31.660Z,54.19
2023-03-16T11:21:06.497Z,55.70
2023-03-16T11:23:41.501Z,55.44
2023-03-16T11:26:21.217Z,55.84
2023-03-16T11:29:01.696Z,54.09
2023-03-16T11:31:42.850Z,54.51
2023-03-16T11:34:19.443Z,53.46
2023-03-16T11:36:56.128Z,54.51
2023-03-16T11:39:37.704Z,51.50
2023-03-16T11:42:21.347Z,51.47
2023-03-16T11:44:57.444Z,51.45
2023-03-16T11:47:59.062Z,50.12
2023-03-16T11:50:32.691Z,51.14
2023-03-16T11:53:12.407Z,49.68
2023-03-16T11:55:55.393Z,49.17
2023-03-16T11:58:39.974Z,48.09
2023-03-16T12:01:19.695Z,47.27
2023-03-16T12:04:08.281Z,48.80
2023-03-16T12:06:53.343Z,47.87
2023-03-16T12:09:53.199Z,45.69
2023-03-16T12:12:39.117Z,44.95
2023-03-16T12:15:24.336Z,44.16
2023-03-16T12:17:58.700Z,45.02
2023-03-16T12:20:33.955Z,43.32
2023-03-16T12:23:09.768Z,44.74
2023-03-16T12:25:45.514Z,44.69
2023-03-16T12:28:24.839Z,42.95
2023-03-16T12:31:09.412Z,42.72
2023-03-16T12:33:54.345Z,43.75
2023-03-16T12:36:49.956Z,43.67
2023-03-16T12:39:32.891Z,41.87
2023-03-16T12:42:15.817Z,41.92
2023-03-16T12:44:51.670Z,41.27
2023-03-16T12:47:31.382Z,40.90
2023-03-16T12:50:09.417Z,40.46
2023-03-16T12:52:45.376Z,39.72
2023-03-16T12:55:21.040Z,37.70
2023-03-16T12:57:59.844Z,37.01
2023-03-16T13:00:37.846Z,36.98
2023-03-16T13:03:18.111Z,35.86
2023-03-16T13:05:52.205Z,36.02
2023-03-16T13:08:24.026Z,37.21
2023-03-16T13:11:06.448Z,35.76
2023-03-16T13:13:50.411Z,34.65
2023-03-16T13:16:29.511Z,34.70
2023-03-16T13:19:01.057Z,36.23
2023-03-16T13:21:42.730Z,34.79
2023-03-16T13:24:36.845Z,34.43
2023-03-16T13:27:16.780Z,36.63
2023-03-16T13:29:56.513Z,35.52
2023-03-16T13:32:31.437Z,35.66
2023-03-16T13:35:06.241Z,35.41
2023-03-16T13:37:37.037Z,35.33
2023-03-16T13:40:21.433Z,35.80
2023-03-16T13:42:55.341Z,35.35
2023-03-16T13:45:30.262Z,34.89
2023-03-16T13:48:01.782Z,34.69
2023-03-16T13:50:36.201Z,33.63
2023-03-16T13:53:12.968Z,34.29
2023-03-16T13:55:48.677Z,33.51
2023-03-16T13:58:26.489Z,32.95
2023-03-16T14:01:00.548Z,33.73
2023-03-16T14:03:37.074Z,34.09
2023-03-16T14:06:20.048Z,34.76
2023-03-16T14:08:53.902Z,36.23
2023-03-16T14:11:24.669Z,35.62
2023-03-16T14:13:56.736Z,36.68
2023-03-16T14:16:29.831Z,35.52
2023-03-16T14:19:05.067Z,36.56
2023-03-16T14:21:36.218Z,37.32
2023-03-16T14:24:17.066Z,37.26
2023-03-16T14:26:49.358Z,37.02
2023-03-16T14:29:24.969Z,37.10
2023-03-16T14:31:56.360Z,37.64
2023-03-16T14:34:32.640Z,38.47
2023-03-16T14:37:11.929Z,37.84
2023-03-16T14:39:43.546Z,37.98
2023-03-16T14:42:27.583Z,38.48
2023-03-16T14:44:59.959Z,39.55
2023-03-16T14:47:33.014Z,38.78
2023-03-16T14:50:08.015Z,39.45
2023-03-16T14:52:39.513Z,40.05
2023-03-16T14:55:16.942Z,39.50
2023-03-16T14:57:49.316Z,39.33
2023-03-16T15:00:22.366Z,39.77
2023-03-16T15:03:00.842Z,38.99
2023-03-16T15:05:37.648Z,38.61
2023-03-16T15:08:15.777Z,39.14
2023-03-16T15:10:47.419Z,39.61
2023-03-16T15:13:34.796Z,39.46
2023-03-16T15:16:06.313Z,39.40
2023-03-16T15:18:37.834Z,39.25
2023-03-16T15:21:13.401Z,39.25
2023-03-16T15:23:45.085Z,40.11
2023-03-16T15:26:19.265Z,40.19
2023-03-16T15:28:49.958Z,40.09
2023-03-16T15:31:23.540Z,39.29
2023-03-16T15:33:58.466Z,40.53
2023-03-16T15:36:32.056Z,40.74
2023-03-16T15:39:08.360Z,40.49
2023-03-16T15:41:47.431Z,40.73
2023-03-16T15:44:18.535Z,41.77
2023-03-16T15:46:49.225Z,41.37
2023-03-16T15:49:19.973Z,41.28
2023-03-16T15:51:51.070Z,41.57
2023-03-16T15:54:22.150Z,41.94
2023-03-16T15:56:54.764Z,42.31
2023-03-16T15:59:27.188Z,42.76
2023-03-16T16:01:57.891Z,43.46
2023-03-16T16:04:28.798Z,43.66
2023-03-16T16:07:02.196Z,44.37
2023-03-16T16:09:35.394Z,44.70
2023-03-16T16:12:06.842Z,45.44
2023-03-16T16:14:37.555Z,45.93
2023-03-16T16:17:15.821Z,45.93
2023-03-16T16:19:46.537Z,46.51
2023-03-16T16:22:17.566Z,47.34
2023-03-16T16:24:48.659Z,47.20
2023-03-16T16:27:19.566Z,47.98
2023-03-16T16:29:50.570Z,47.99
2023-03-16T16:32:29.839Z,48.73
2023-03-16T16:35:04.596Z,49.48
2023-03-16T16:37:35.567Z,49.58
2023-03-16T16:40:07.442Z,50.09
2023-03-16T16:42:37.913Z,50.46
2023-03-16T16:45:14.694Z,51.27
2023-03-16T16:47:45.476Z,51.53
2023-03-16T16:50:22.749Z,52.02
2023-03-16T16:52:55.279Z,52.25
2023-03-16T16:55:27.653Z,52.83
2023-03-16T16:57:58.603Z,53.40
2023-03-16T17:00:30.007Z,53.78
2023-03-16T17:02:58.994Z,54.03
2023-03-16T17:05:31.700Z,54.39
2023-03-16T17:08:04.312Z,54.88
2023-03-16T17:10:35.571Z,55.22
2023-03-16T17:13:07.520Z,55.73
2023-03-16T17:15:38.253Z,55.80
2023-03-16T17:18:14.061Z,56.49
2023-03-16T17:20:45.051Z,56.53
2023-03-16T17:23:29.730Z,56.94
2023-03-16T17:26:02.901Z,57.26
2023-03-16T17:28:38.725Z,57.34
2023-03-16T17:31:09.630Z,57.51
2023-03-16T17:33:40.274Z,58.15
2023-03-16T17:36:15.443Z,58.06
2023-03-16T17:38:46.513Z,58.31
2023-03-16T17:41:25.747Z,58.52
2023-03-16T17:43:58.478Z,58.57
2023-03-16T17:46:31.555Z,58.96
2023-03-16T17:49:12.213Z,58.80
2023-03-16T17:51:44.049Z,59.12
2023-03-16T17:54:15.016Z,59.25
2023-03-16T17:56:46.614Z,59.41
2023-03-16T17:59:20.004Z,59.44
2023-03-16T18:01:51.309Z,59.42
2023-03-16T18:04:21.528Z,59.52
2023-03-16T18:06:52.807Z,59.84
2023-03-16T18:09:23.376Z,59.86
2023-03-16T18:11:54.297Z,59.69
2023-03-16T18:14:35.284Z,59.87
2023-03-16T18:17:27.844Z,59.48
2023-03-16T18:19:59.065Z,59.59
2023-03-16T18:22:29.900Z,59.87
2023-03-16T18:25:02.045Z,59.54
2023-03-16T18:27:32.847Z,59.42
2023-03-16T18:30:03.615Z,59.02
2023-03-16T18:32:34.301Z,59.37
2023-03-16T18:35:05.615Z,59.37
2023-03-16T18:37:34.958Z,59.24
2023-03-16T18:40:06.621Z,59.05
2023-03-16T18:42:37.277Z,58.84
2023-03-16T18:45:11.675Z,58.99
2023-03-16T18:47:45.685Z,58.77
2023-03-16T18:50:30.236Z,58.87
2023-03-16T18:53:00.777Z,58.84
2023-03-16T18:55:32.663Z,59.05
2023-03-16T18:58:03.228Z,59.29
2023-03-16T19:00:35.273Z,59.03
2023-03-16T19:03:09.128Z,58.90
2023-03-16T19:05:40.768Z,58.81
2023-03-16T19:08:14.432Z,58.97
2023-03-16T19:10:49.977Z,58.74
2023-03-16T19:13:24.745Z,58.95
2023-03-16T19:15:57.841Z,59.04
2023-03-16T19:18:29.357Z,59.21
2023-03-16T19:20:58.436Z,59.04
2023-03-16T19:23:32.547Z,59.39
2023-03-16T19:26:03.550Z,59.29
2023-03-16T19:28:36.782Z,59.39
2023-03-16T19:31:18.014Z,59.42
2023-03-16T19:33:49.792Z,59.60
2023-03-16T19:36:23.344Z,59.86
2023-03-16T19:38:54.815Z,59.50
2023-03-16T19:41:26.865Z,59.57
2023-03-16T19:44:03.647Z,59.61
2023-03-16T19:46:34.417Z,59.53
2023-03-16T19:49:08.731Z,59.33
2023-03-16T19:51:39.427Z,59.37
2023-03-16T19:54:12.979Z,59.21
2023-03-16T19:56:43.630Z,59.23
2023-03-16T19:59:14.608Z,59.44
2023-03-16T20:01:46.072Z,59.26
2023-03-16T20:04:21.764Z,59.43
2023-03-16T20:06:53.613Z,59.37
2023-03-16T20:09:24.429Z,59.20
2023-03-16T20:11:54.935Z,59.15
2023-03-16T20:14:32.436Z,59.25
2023-03-16T20:17:03.251Z,59.21
2023-03-16T20:19:34.271Z,59.22
2023-03-16T20:22:07.485Z,59.01
2023-03-16T20:24:38.677Z,59.23
2023-03-16T20:27:12.695Z,59.04
2023-03-16T20:29:43.871Z,59.17
2023-03-16T20:32:20.633Z,59.15
2023-03-16T20:34:53.669Z,59.08
2023-03-16T20:37:27.087Z,59.15
2023-03-16T20:39:59.308Z,59.23
2023-03-16T20:42:32.801Z,59.15
2023-03-16T20:45:06.136Z,58.99
2023-03-16T20:47:37.057Z,58.71
2023-03-16T20:50:18.005Z,58.90
2023-03-16T20:52:49.147Z,58.92
2023-03-16T20:55:22.692Z,58.46
2023-03-16T20:57:55.405Z,58.81
2023-03-16T21:00:33.374Z,59.05
2023-03-16T21:03:07.789Z,58.80
2023-03-16T21:05:38.591Z,59.06
2023-03-16T21:08:12.751Z,58.93
2023-03-16T21:10:43.753Z,59.00
2023-03-16T21:13:21.951Z,58.51
2023-03-16T21:15:53.129Z,58.75
2023-03-16T21:18:24.038Z,58.41
2023-03-16T21:20:56.332Z,58.06
2023-03-16T21:23:27.086Z,58.30
2023-03-16T21:26:00.775Z,58.17
2023-03-16T21:28:33.830Z,57.99
2023-03-16T21:31:06.817Z,57.84
2023-03-16T21:33:39.969Z,58.07
2023-03-16T21:36:17.137Z,57.99
2023-03-16T21:38:48.978Z,57.98
2023-03-16T21:41:20.401Z,57.80
2023-03-16T21:43:50.192Z,57.75
2023-03-16T21:46:22.884Z,57.54
2023-03-16T21:48:56.268Z,57.25
2023-03-16T21:51:31.435Z,57.11
2023-03-16T21:54:02.371Z,56.85
2023-03-16T21:56:33.027Z,56.69
2023-03-16T21:59:03.723Z,56.36
2023-03-16T22:01:42.848Z,56.37
2023-03-16T22:04:21.670Z,56.55
2023-03-16T22:06:52.378Z,56.22
2023-03-16T22:09:25.008Z,56.75
2023-03-16T22:11:56.052Z,56.69
2023-03-16T22:14:27.238Z,56.82
2023-03-16T22:16:57.027Z,56.65
2023-03-16T22:19:28.376Z,56.78
2023-03-16T22:21:57.716Z,56.71
2023-03-16T22:24:30.496Z,56.33
2023-03-16T22:27:01.594Z,56.36
2023-03-16T22:29:34.044Z,56.30
2023-03-16T22:32:08.584Z,56.26
2023-03-16T22:34:45.016Z,56.28
2023-03-16T22:37:20.369Z,56.29
2023-03-16T22:39:52.054Z,56.48
2023-03-16T22:42:32.843Z,56.01
2023-03-16T22:45:03.469Z,56.06
2023-03-16T22:47:35.240Z,56.35
2023-03-16T22:50:07.391Z,56.08
2023-03-16T22:52:38.800Z,56.11
2023-03-16T22:55:09.103Z,55.89
2023-03-16T22:57:39.567Z,56.12
2023-03-16T23:00:14.524Z,56.18
2023-03-16T23:02:44.907Z,56.12
2023-03-16T23:05:24.358Z,56.04
2023-03-16T23:07:55.567Z,55.94
2023-03-16T23:10:29.648Z,56.06
2023-03-16T23:13:02.232Z,56.25
2023-03-16T23:15:33.341Z,56.34
2023-03-16T23:18:03.920Z,56.44
2023-03-16T23:20:34.663Z,56.33
2023-03-16T23:23:05.604Z,56.32
2023-03-16T23:25:37.705Z,56.45
2023-03-16T23:28:08.977Z,56.73
2023-03-16T23:30:39.839Z,56.63
2023-03-16T23:33:13.320Z,56.53
2023-03-16T23:35:46.518Z,56.14
2023-03-16T23:38:17.313Z,56.06
2023-03-16T23:40:49.477Z,56.46
2023-03-16T23:43:20.234Z,56.36
2023-03-16T23:45:51.253Z,56.63
2023-03-16T23:48:23.632Z,56.52
2023-03-16T23:50:57.328Z,57.15
2023-03-16T23:53:27.951Z,56.81
2023-03-16T23:55:58.846Z,57.00
2023-03-16T23:58:29.342Z,56.88
